Time;durP1;ratioP1;P1;durP2;ratioP2;P2;SDS_P1;SDS_P2;PMS_P1;PMS_P2;Temp;Humidity;BMP_temperature;BMP_pressure;BME280_temperature;BME280_humidity;BME280_pressure;Samples;Min_cycle;Max_cycle;Signal;HPM_P1;HPM_P2
2023/12/19 00:01:48;;;;;;;43.23;19.83;;;;;;;2.41;70.60;101759.34;5051517;28;20746;-76
2023/12/19 00:04:14;;;;;;;37.47;18.92;;;;;;;2.40;70.32;101754.06;5051600;28;20164;-76
2023/12/19 00:06:39;;;;;;;44.27;19.00;;;;;;;2.38;70.19;101759.16;5051746;28;20026;-76
2023/12/19 00:09:05;;;;;;;39.60;18.83;;;;;;;2.37;71.17;101767.78;5051979;28;20017;-75
2023/12/19 00:11:30;;;;;;;37.40;17.20;;;;;;;2.36;70.40;101759.91;5051960;28;20771;-76
2023/12/19 00:13:56;;;;;;;37.47;17.27;;;;;;;2.35;70.74;101752.94;5051626;28;20040;-76
2023/12/19 00:16:22;;;;;;;36.03;17.25;;;;;;;2.34;70.56;101756.34;5051719;28;20505;-76
2023/12/19 00:18:47;;;;;;;32.73;16.83;;;;;;;2.33;70.81;101759.75;5051656;28;20033;-76
2023/12/19 00:21:13;;;;;;;37.08;16.20;;;;;;;2.28;70.69;101752.56;5051510;28;20439;-76
2023/12/19 00:23:38;;;;;;;33.33;16.60;;;;;;;2.26;70.27;101746.41;5051061;28;20025;-76
2023/12/19 00:26:05;;;;;;;38.77;16.50;;;;;;;2.22;70.72;101733.19;5051036;28;20045;-75
2023/12/19 00:28:31;;;;;;;33.60;15.75;;;;;;;2.19;70.98;101733.03;5049234;28;20393;-75
2023/12/19 00:30:57;;;;;;;43.00;17.85;;;;;;;2.21;70.58;101736.59;5051418;28;20477;-76
2023/12/19 00:33:22;;;;;;;41.07;17.10;;;;;;;2.18;71.00;101732.13;5051515;28;20017;-76
2023/12/19 00:35:48;;;;;;;36.78;16.38;;;;;;;2.17;70.91;101738.13;5051355;28;20045;-75
2023/12/19 00:38:14;;;;;;;35.17;15.80;;;;;;;2.16;71.46;101736.34;5051220;28;20032;-75
2023/12/19 00:40:39;;;;;;;32.42;15.65;;;;;;;2.14;70.72;101733.63;5051267;28;20029;-75
2023/12/19 00:43:04;;;;;;;32.83;15.27;;;;;;;2.09;71.46;101729.91;5051139;28;20116;-76
2023/12/19 00:45:30;;;;;;;31.53;15.60;;;;;;;2.09;71.82;101723.84;5051856;28;20433;-75
2023/12/19 00:47:55;;;;;;;32.50;14.90;;;;;;;2.09;71.72;101726.44;5051037;28;20032;-75
2023/12/19 00:50:21;;;;;;;30.47;15.13;;;;;;;2.07;71.25;101717.66;5051294;28;20104;-76
2023/12/19 00:52:46;;;;;;;31.67;15.13;;;;;;;2.07;71.25;101721.13;5051028;28;20027;-76
2023/12/19 00:55:12;;;;;;;30.47;15.10;;;;;;;2.06;71.53;101718.47;5050998;28;20426;-75
2023/12/19 00:57:37;;;;;;;36.77;15.93;;;;;;;2.05;70.95;101719.25;5050855;28;20025;-76
2023/12/19 01:00:03;;;;;;;32.10;15.30;;;;;;;2.05;71.54;101714.06;5050642;28;20382;-76
2023/12/19 01:02:31;;;;;;;35.42;15.25;;;;;;;2.05;71.01;101716.66;5050665;28;20040;-76
2023/12/19 01:04:57;;;;;;;35.00;15.93;;;;;;;2.04;70.99;101709.66;5050545;28;20128;-75
2023/12/19 01:07:23;;;;;;;32.58;14.98;;;;;;;2.03;71.33;101702.69;5050876;28;20038;-76
2023/12/19 01:09:49;;;;;;;31.13;14.88;;;;;;;1.99;71.14;101701.66;5050486;28;20029;-76
2023/12/19 01:12:15;;;;;;;29.30;13.93;;;;;;;1.97;71.47;101703.28;5050751;28;20055;-75
2023/12/19 01:14:41;;;;;;;29.67;14.17;;;;;;;1.95;71.38;101703.19;5050400;28;20032;-75
2023/12/19 01:17:07;;;;;;;32.10;15.05;;;;;;;1.94;71.60;101703.09;5050387;28;20032;-75
2023/12/19 01:19:32;;;;;;;28.05;13.77;;;;;;;1.92;71.09;101705.59;5050470;28;20046;-76
2023/12/19 01:21:58;;;;;;;25.43;13.73;;;;;;;1.91;71.33;101706.41;5050564;28;20385;-76
2023/12/19 01:24:23;;;;;;;27.40;13.07;;;;;;;1.88;70.97;101714.06;5049623;28;20104;-76
2023/12/19 01:26:49;;;;;;;30.00;14.10;;;;;;;1.86;71.39;101713.94;5050165;28;20421;-76
2023/12/19 01:29:15;;;;;;;26.97;13.80;;;;;;;1.82;71.59;101712.00;5050416;28;20416;-76
2023/12/19 01:31:41;;;;;;;26.27;13.63;;;;;;;1.80;70.96;101705.84;5050675;28;20124;-76
2023/12/19 01:34:06;;;;;;;30.53;14.60;;;;;;;1.78;71.65;101702.25;5050258;28;20033;-76
2023/12/19 01:36:31;;;;;;;29.10;14.77;;;;;;;1.77;71.05;101715.16;5050357;28;20040;-75
2023/12/19 01:38:57;;;;;;;33.10;14.23;;;;;;;1.72;71.07;101713.19;5050311;28;20024;-75
2023/12/19 01:41:22;;;;;;;29.40;13.23;;;;;;;1.72;70.89;101713.19;5049249;28;20033;-76
2023/12/19 01:43:48;;;;;;;27.23;12.57;;;;;;;1.72;71.16;101715.78;5049837;28;20033;-76
2023/12/19 01:46:17;;;;;;;30.07;13.23;;;;;;;1.74;70.96;101720.16;5050032;28;20069;-76
2023/12/19 01:48:42;;;;;;;28.40;12.27;;;;;;;1.76;71.77;101714.28;5050002;28;20272;-75
2023/12/19 01:51:11;;;;;;;26.90;12.77;;;;;;;1.77;71.79;101710.84;5050115;28;20025;-75
2023/12/19 01:53:37;;;;;;;24.60;11.88;;;;;;;1.80;71.66;101715.31;5050092;28;20067;-76
2023/12/19 01:56:03;;;;;;;26.20;12.10;;;;;;;1.82;70.97;101716.31;5049907;28;20035;-76
2023/12/19 01:58:30;;;;;;;28.17;11.90;;;;;;;1.85;71.79;101719.09;5049779;28;20028;-76
2023/12/19 02:00:56;;;;;;;24.55;11.55;;;;;;;1.88;70.93;101724.44;5049701;28;20032;-76
2023/12/19 02:03:22;;;;;;;24.93;12.10;;;;;;;1.89;71.39;101709.72;5049790;28;20083;-75
2023/12/19 02:05:51;;;;;;;26.45;12.23;;;;;;;1.91;71.21;101715.91;5049287;28;20028;-76
2023/12/19 02:08:16;;;;;;;25.95;11.52;;;;;;;1.93;71.95;101722.97;5049871;28;20025;-77
2023/12/19 02:10:42;;;;;;;27.30;11.80;;;;;;;1.95;71.23;101718.75;5049965;28;20108;-77
2023/12/19 02:13:07;;;;;;;35.05;12.88;;;;;;;1.98;72.07;101720.66;5049519;28;20052;-77
2023/12/19 02:15:33;;;;;;;35.90;12.30;;;;;;;2.00;71.96;101719.03;5049707;28;20040;-77
2023/12/19 02:18:14;;;;;;;32.80;13.10;;;;;;;1.99;73.05;101718.13;5049639;28;20112;-77
2023/12/19 02:20:39;;;;;;;34.72;12.73;;;;;;;2.00;72.73;101721.63;5049314;28;20033;-77
2023/12/19 02:23:05;;;;;;;35.23;12.80;;;;;;;2.01;72.02;101711.28;5049632;28;20048;-77
2023/12/19 02:25:30;;;;;;;34.47;13.20;;;;;;;2.01;72.74;101711.28;5047874;28;20544;-78
2023/12/19 02:27:57;;;;;;;36.27;12.93;;;;;;;2.04;72.55;101714.88;5049612;28;20056;-77
2023/12/19 02:30:22;;;;;;;37.67;14.02;;;;;;;2.08;72.90;101711.66;5049616;28;20035;-77
2023/12/19 02:32:47;;;;;;;37.13;13.47;;;;;;;2.12;72.72;101708.41;5049535;28;20420;-77
2023/12/19 02:35:13;;;;;;;34.47;13.23;;;;;;;2.14;73.17;101705.06;5049544;28;20033;-77
2023/12/19 02:37:38;;;;;;;47.38;15.35;;;;;;;2.17;72.86;101701.75;5049498;28;20285;-77
2023/12/19 02:40:04;;;;;;;37.10;13.23;;;;;;;2.21;73.18;101708.88;5049309;28;20072;-77
2023/12/19 02:42:30;;;;;;;42.13;14.73;;;;;;;2.27;72.46;101703.13;5049327;28;20032;-77
2023/12/19 02:44:55;;;;;;;49.00;14.82;;;;;;;2.28;72.90;101695.38;5049193;28;20060;-77
2023/12/19 02:47:20;;;;;;;43.63;14.07;;;;;;;2.29;73.81;101701.50;5049380;28;20037;-77
2023/12/19 02:49:46;;;;;;;35.57;14.13;;;;;;;2.32;73.44;101701.66;5047849;28;20039;-77
2023/12/19 02:52:11;;;;;;;43.17;14.27;;;;;;;2.36;72.79;101698.41;5051635;28;20025;-77
2023/12/19 02:54:37;;;;;;;42.78;13.55;;;;;;;2.38;73.65;101707.16;5053464;28;20041;-77
2023/12/19 02:57:02;;;;;;;44.63;13.73;;;;;;;2.41;72.99;101701.25;5053232;28;20412;-77
2023/12/19 02:59:28;;;;;;;46.23;15.30;;;;;;;2.44;73.17;101711.81;5053033;28;20103;-77
2023/12/19 03:01:53;;;;;;;41.13;14.50;;;;;;;2.46;73.49;101707.59;5053091;28;20029;-77
2023/12/19 03:04:18;;;;;;;39.33;13.97;;;;;;;2.44;73.64;101698.81;5052887;28;20029;-77
2023/12/19 03:06:44;;;;;;;46.43;14.10;;;;;;;2.46;73.62;101698.91;5052935;28;20029;-77
2023/12/19 03:09:09;;;;;;;38.57;13.70;;;;;;;2.45;73.25;101695.41;5053236;28;20049;-77
2023/12/19 03:11:38;;;;;;;36.37;12.90;;;;;;;2.47;73.52;101701.56;5053049;28;20472;-76
2023/12/19 03:14:04;;;;;;;43.65;13.77;;;;;;;2.48;73.56;101700.75;5052830;28;20025;-77
2023/12/19 03:16:29;;;;;;;41.77;13.40;;;;;;;2.51;73.26;101700.91;5052891;28;20044;-77
2023/12/19 03:18:55;;;;;;;30.63;12.40;;;;;;;2.52;73.94;101694.88;5053001;28;20116;-76
2023/12/19 03:21:20;;;;;;;37.30;12.00;;;;;;;2.54;73.71;101703.69;5052784;28;20052;-77
2023/12/19 03:23:46;;;;;;;34.43;13.07;;;;;;;2.55;74.17;101694.16;5051549;28;20032;-76
2023/12/19 03:26:11;;;;;;;35.13;13.07;;;;;;;2.55;73.81;101695.06;5052518;28;20051;-77
2023/12/19 03:28:37;;;;;;;32.77;12.73;;;;;;;2.57;73.75;101685.66;5052673;28;20629;-77
2023/12/19 03:31:03;;;;;;;40.28;13.63;;;;;;;2.58;73.61;101689.13;5052790;28;20108;-77
2023/12/19 03:33:29;;;;;;;36.35;13.68;;;;;;;2.53;74.35;101690.59;5052802;28;20481;-77
2023/12/19 03:35:55;;;;;;;31.80;12.00;;;;;;;2.49;74.85;101689.53;5052529;28;20035;-76
2023/12/19 03:38:21;;;;;;;31.98;11.75;;;;;;;2.48;74.80;101682.56;5052424;28;20024;-77
2023/12/19 03:40:46;;;;;;;37.63;13.93;;;;;;;2.50;74.45;101680.91;5052465;28;20463;-77
2023/12/19 03:43:12;;;;;;;31.87;12.13;;;;;;;2.54;74.66;101681.97;5051073;28;20442;-77
2023/12/19 03:45:37;;;;;;;33.88;12.60;;;;;;;2.57;74.18;101676.94;5051925;28;20033;-77
2023/12/19 03:48:03;;;;;;;32.47;13.13;;;;;;;2.61;74.60;101673.66;5052329;28;20127;-77
2023/12/19 03:50:28;;;;;;;28.00;11.00;;;;;;;2.63;74.34;101676.38;5052362;28;20025;-76
2023/12/19 03:52:54;;;;;;;31.53;11.67;;;;;;;2.64;74.19;101672.94;5052216;28;20037;-76
2023/12/19 03:55:19;;;;;;;28.77;11.13;;;;;;;2.67;74.23;101673.09;5050989;28;20739;-77
2023/12/19 03:57:45;;;;;;;29.08;11.88;;;;;;;2.70;74.57;101668.06;5052077;28;20037;-77
2023/12/19 04:00:11;;;;;;;31.77;12.43;;;;;;;2.73;74.84;101657.78;5052147;28;20184;-76
2023/12/19 04:02:36;;;;;;;27.10;11.88;;;;;;;2.75;74.28;101655.28;5031386;28;20032;-76
2023/12/19 04:05:02;;;;;;;29.47;12.57;;;;;;;2.77;74.30;101651.94;5039641;28;20029;-77
2023/12/19 04:07:28;;;;;;;33.03;12.50;;;;;;;2.79;74.16;101652.03;5051860;28;20029;-77
2023/12/19 04:09:53;;;;;;;30.02;12.25;;;;;;;2.83;74.27;101648.75;5051865;28;20059;-77
2023/12/19 04:12:18;;;;;;;29.23;12.47;;;;;;;2.83;74.29;101643.53;5052414;28;20017;-76
2023/12/19 04:14:44;;;;;;;33.40;13.47;;;;;;;2.84;74.21;101648.84;5051511;28;20413;-76
2023/12/19 04:17:10;;;;;;;34.53;13.07;;;;;;;2.86;74.51;101641.09;5052012;28;20025;-77
2023/12/19 04:19:36;;;;;;;32.35;13.27;;;;;;;2.87;74.60;101651.59;5051952;28;20021;-77
2023/12/19 04:22:02;;;;;;;36.17;13.53;;;;;;;2.87;74.60;101643.78;5051649;28;20040;-76
2023/12/19 04:24:28;;;;;;;33.73;13.47;;;;;;;2.88;74.71;101642.06;5050350;28;20353;-76
2023/12/19 04:26:53;;;;;;;33.05;13.52;;;;;;;2.91;74.56;101651.75;5051337;28;20420;-77
2023/12/19 04:29:19;;;;;;;38.73;14.43;;;;;;;2.90;74.53;101650.88;5051637;28;20029;-76
2023/12/19 04:31:44;;;;;;;36.20;13.73;;;;;;;2.89;75.18;101653.38;5051640;28;20460;-76
2023/12/19 04:34:09;;;;;;;38.83;14.67;;;;;;;2.87;75.22;101656.78;5051555;28;20036;-76
2023/12/19 04:36:35;;;;;;;35.00;14.00;;;;;;;2.87;75.32;101650.69;5051525;28;20270;-76
2023/12/19 04:39:03;;;;;;;31.50;12.83;;;;;;;2.87;75.33;101650.69;5051365;28;20024;-77
2023/12/19 04:41:29;;;;;;;33.55;13.32;;;;;;;2.88;75.81;101652.47;5051123;28;20025;-77
2023/12/19 04:43:54;;;;;;;34.47;12.80;;;;;;;2.90;75.90;101655.16;5050990;28;20029;-77
2023/12/19 04:46:20;;;;;;;37.57;15.30;;;;;;;2.91;75.65;101651.75;5051116;28;20078;-77
2023/12/19 04:48:45;;;;;;;35.97;14.50;;;;;;;2.92;75.14;101651.84;5051214;28;20077;-77
2023/12/19 04:51:20;;;;;;;38.43;13.63;;;;;;;2.96;75.61;101658.06;5051240;28;20271;-76
2023/12/19 04:53:47;;;;;;;32.80;12.70;;;;;;;2.98;75.32;101664.22;5051148;28;20025;-76
2023/12/19 04:56:12;;;;;;;31.93;12.30;;;;;;;3.00;75.38;101662.59;5051290;28;20079;-77
2023/12/19 04:58:42;;;;;;;39.95;13.02;;;;;;;3.00;75.41;101660.91;5050744;28;20473;-77
2023/12/19 05:01:07;;;;;;;33.17;12.35;;;;;;;3.01;75.32;101664.38;5050868;28;20057;-77
2023/12/19 05:03:37;;;;;;;31.83;12.70;;;;;;;3.03;75.47;101657.56;5050708;28;20120;-76
2023/12/19 05:06:03;;;;;;;31.48;11.90;;;;;;;3.05;75.56;101655.94;5050788;28;20037;-76
2023/12/19 05:08:29;;;;;;;37.17;13.02;;;;;;;3.05;75.07;101655.94;5050999;28;20032;-77
2023/12/19 05:10:54;;;;;;;33.47;13.37;;;;;;;3.07;75.71;101664.72;5050502;28;20096;-77
2023/12/19 05:13:19;;;;;;;37.23;13.33;;;;;;;3.06;75.70;101664.63;5050928;28;20064;-77
2023/12/19 05:15:45;;;;;;;34.87;13.97;;;;;;;3.05;75.78;101661.13;5050698;28;20524;-77
2023/12/19 05:18:10;;;;;;;38.33;14.33;;;;;;;3.05;75.73;101670.63;5050561;28;20064;-76
2023/12/19 05:20:36;;;;;;;39.50;13.53;;;;;;;3.03;75.86;101670.56;5050950;28;20033;-77
2023/12/19 05:23:01;;;;;;;39.60;14.25;;;;;;;3.03;76.05;101682.69;5050473;28;20037;-77
2023/12/19 05:25:27;;;;;;;36.73;14.00;;;;;;;3.01;76.43;101674.78;5048933;28;20087;-76
2023/12/19 05:27:52;;;;;;;42.90;13.77;;;;;;;3.01;76.42;101682.59;5050380;28;20075;-77
2023/12/19 05:30:17;;;;;;;37.03;13.03;;;;;;;3.01;76.19;101686.09;5050360;28;20040;-77
2023/12/19 05:32:43;;;;;;;35.45;13.05;;;;;;;3.03;76.32;101694.00;5050441;28;20029;-77
2023/12/19 05:35:09;;;;;;;31.80;11.60;;;;;;;3.04;76.54;101690.59;5050351;28;20033;-77
2023/12/19 05:37:34;;;;;;;35.83;12.00;;;;;;;3.07;76.20;101695.94;5050284;28;20028;-77
2023/12/19 05:40:00;;;;;;;42.37;13.20;;;;;;;3.09;76.23;101686.50;5050202;28;20033;-76
2023/12/19 05:42:25;;;;;;;35.37;12.87;;;;;;;3.10;76.57;101689.97;5049963;28;20108;-77
2023/12/19 05:44:50;;;;;;;38.00;12.97;;;;;;;3.10;76.38;101693.47;5049911;28;20420;-77
2023/12/19 05:47:16;;;;;;;35.77;13.50;;;;;;;3.09;76.37;101689.09;5050087;28;20041;-77
2023/12/19 05:49:41;;;;;;;39.77;14.20;;;;;;;3.10;77.10;101695.19;5049910;28;20031;-77
2023/12/19 05:52:06;;;;;;;41.83;14.27;;;;;;;3.07;78.83;101693.34;5050202;28;20603;-77
2023/12/19 05:54:32;;;;;;;39.43;14.97;;;;;;;3.07;77.61;101690.72;5050296;28;20268;-77
2023/12/19 05:56:57;;;;;;;39.93;14.27;;;;;;;3.05;77.78;101692.38;5050005;28;20155;-77
2023/12/19 05:59:22;;;;;;;34.50;13.13;;;;;;;3.05;78.42;101691.47;5048752;28;20119;-76
2023/12/19 06:01:48;;;;;;;35.40;11.67;;;;;;;3.06;78.20;101688.94;5049789;28;20025;-76
2023/12/19 06:04:13;;;;;;;41.20;13.63;;;;;;;3.05;79.85;101691.47;5049694;28;20028;-77
2023/12/19 06:06:43;;;;;;;36.17;11.90;;;;;;;3.04;80.00;101680.16;5049305;28;20032;-77
2023/12/19 06:09:11;;;;;;;32.07;10.83;;;;;;;3.03;79.39;101683.59;5049860;28;20033;-77
2023/12/19 06:11:36;;;;;;;34.47;11.40;;;;;;;3.02;80.05;101684.41;5050064;28;20035;-77
2023/12/19 06:14:02;;;;;;;30.95;10.13;;;;;;;3.02;79.47;101687.00;5049390;28;20518;-77
2023/12/19 06:16:28;;;;;;;30.57;10.33;;;;;;;3.04;79.34;101689.66;5049945;28;20040;-77
2023/12/19 06:18:53;;;;;;;25.95;10.13;;;;;;;3.06;79.37;101690.63;5049724;28;20029;-76
2023/12/19 06:21:19;;;;;;;32.53;11.80;;;;;;;3.07;80.61;101695.94;5049410;28;20040;-77
2023/12/19 06:23:44;;;;;;;32.30;10.83;;;;;;;3.07;79.55;101708.94;5048530;28;20029;-77
2023/12/19 06:26:09;;;;;;;34.93;12.63;;;;;;;3.07;80.63;101711.56;5048813;28;20390;-76
2023/12/19 06:28:35;;;;;;;31.83;11.77;;;;;;;3.05;80.35;101707.06;5049329;28;20045;-77
2023/12/19 06:31:00;;;;;;;33.88;11.57;;;;;;;3.03;80.27;101713.91;5045211;28;20063;-76
2023/12/19 06:33:26;;;;;;;33.80;12.87;;;;;;;3.01;81.13;101716.44;5040160;28;20595;-76
2023/12/19 06:35:54;;;;;;;33.60;12.37;;;;;;;2.97;81.11;101710.19;5046190;28;20515;-77
2023/12/19 06:38:19;;;;;;;31.30;9.75;;;;;;;2.98;80.57;101711.97;5030731;28;20482;-76
2023/12/19 06:40:45;;;;;;;37.77;13.97;;;;;;;3.00;80.16;101714.63;5045224;28;20075;-77
2023/12/19 06:43:11;;;;;;;35.95;12.02;;;;;;;3.01;80.53;101711.22;5048445;28;20573;-77
2023/12/19 06:45:37;;;;;;;31.20;11.60;;;;;;;3.03;79.90;101706.09;5048933;28;20090;-77
2023/12/19 06:48:03;;;;;;;27.08;11.18;;;;;;;3.06;80.20;101711.47;5046694;28;20025;-77
2023/12/19 06:50:28;;;;;;;27.33;11.20;;;;;;;3.07;79.65;101714.16;5047939;28;20059;-77
2023/12/19 06:52:54;;;;;;;26.97;9.67;;;;;;;3.09;79.62;101701.19;5049390;28;20017;-77
2023/12/19 06:55:20;;;;;;;27.67;10.23;;;;;;;3.10;79.78;101695.19;5049062;28;20033;-76
2023/12/19 06:57:45;;;;;;;27.70;9.93;;;;;;;3.10;79.71;101700.38;5045567;28;20044;-77
2023/12/19 07:00:11;;;;;;;29.30;10.30;;;;;;;3.08;79.84;101697.72;5048057;28;20035;-77
2023/12/19 07:02:37;;;;;;;30.37;10.43;;;;;;;3.07;79.85;101695.03;5047610;28;20270;-77
2023/12/19 07:05:03;;;;;;;28.63;10.97;;;;;;;3.05;80.07;101700.19;5048108;28;20233;-77
2023/12/19 07:07:29;;;;;;;31.13;10.70;;;;;;;3.05;80.17;101704.47;5046371;28;20275;-77
2023/12/19 07:09:54;;;;;;;32.70;12.70;;;;;;;3.04;80.88;101700.09;5044742;28;20025;-78
2023/12/19 07:12:19;;;;;;;28.80;11.87;;;;;;;3.03;81.11;101701.81;5049348;28;20265;-77
2023/12/19 07:14:45;;;;;;;30.60;12.30;;;;;;;3.02;81.15;101702.63;5045262;28;20057;-77
2023/12/19 07:17:10;;;;;;;30.03;12.03;;;;;;;3.01;80.56;101701.72;5049076;28;20056;-77
2023/12/19 07:19:36;;;;;;;30.10;12.17;;;;;;;3.03;81.01;101704.41;5050153;28;20021;-77
2023/12/19 07:22:01;;;;;;;32.17;13.38;;;;;;;3.02;81.37;101687.00;5048981;28;20035;-77
2023/12/19 07:24:28;;;;;;;28.50;12.00;;;;;;;3.02;82.03;101700.03;5044471;28;20032;-77
2023/12/19 07:26:57;;;;;;;31.17;11.82;;;;;;;3.03;81.46;101688.78;5046827;28;20057;-77
2023/12/19 07:29:22;;;;;;;34.13;12.50;;;;;;;3.04;80.99;101685.38;5043399;28;20124;-77
2023/12/19 07:31:47;;;;;;;28.97;12.30;;;;;;;3.06;80.90;101686.34;5048550;28;20144;-77
2023/12/19 07:34:13;;;;;;;30.03;12.87;;;;;;;3.08;80.97;101686.41;5049040;28;20068;-77
2023/12/19 07:36:38;;;;;;;27.13;11.87;;;;;;;3.08;81.55;101687.31;5048985;28;20029;-77
2023/12/19 07:39:04;;;;;;;28.67;11.70;;;;;;;3.10;80.96;101679.56;5035694;28;20032;-76
2023/12/19 07:41:31;;;;;;;28.80;10.90;;;;;;;3.11;80.94;101674.44;5032554;28;20948;-77
2023/12/19 07:44:01;;;;;;;28.48;11.52;;;;;;;3.13;80.94;101683.22;5032295;28;20079;-77
2023/12/19 07:46:27;;;;;;;29.38;11.75;;;;;;;3.15;80.83;101683.31;5034516;28;20040;-78
2023/12/19 07:48:53;;;;;;;31.60;12.35;;;;;;;3.18;80.87;101682.53;5052520;28;20024;-77
2023/12/19 07:51:23;;;;;;;33.73;11.67;;;;;;;3.18;80.87;101682.53;5052487;28;20033;-76
2023/12/19 07:53:49;;;;;;;27.42;11.25;;;;;;;3.20;80.97;101688.72;5052188;28;20029;-77
2023/12/19 07:56:14;;;;;;;26.42;10.00;;;;;;;3.22;80.79;101694.88;5052176;28;20547;-77
2023/12/19 07:58:40;;;;;;;31.10;11.57;;;;;;;3.25;80.51;101690.75;5051761;28;20025;-77
2023/12/19 08:01:08;;;;;;;29.57;10.70;;;;;;;3.27;80.81;101690.81;5052036;28;20032;-77
2023/12/19 08:03:34;;;;;;;31.38;12.75;;;;;;;3.30;80.80;101688.38;5051964;28;20037;-76
2023/12/19 08:05:59;;;;;;;35.83;14.03;;;;;;;3.30;81.80;101688.38;5051952;28;20086;-77
2023/12/19 08:08:25;;;;;;;29.17;11.77;;;;;;;3.29;81.40;101692.66;5052036;28;20392;-77
2023/12/19 08:10:51;;;;;;;30.37;11.50;;;;;;;3.32;80.68;101694.53;5052035;28;20512;-77
2023/12/19 08:13:20;;;;;;;34.35;13.20;;;;;;;3.35;80.57;101697.28;5052015;28;20032;-77
2023/12/19 08:15:47;;;;;;;36.75;13.85;;;;;;;3.37;80.96;101698.25;5051914;28;20075;-76
2023/12/19 08:18:16;;;;;;;46.55;14.70;;;;;;;3.41;80.93;101701.91;5051765;28;20088;-77
2023/12/19 08:20:42;;;;;;;45.90;16.05;;;;;;;3.40;80.87;101703.59;5051744;28;20394;-77
2023/12/19 08:23:08;;;;;;;38.80;13.53;;;;;;;3.41;80.90;101710.59;5051829;28;20029;-77
2023/12/19 08:25:34;;;;;;;29.70;11.63;;;;;;;3.42;80.95;101704.56;5050847;28;20083;-76
2023/12/19 08:28:01;;;;;;;36.50;12.93;;;;;;;3.44;80.93;101700.31;5051469;28;20529;-77
2023/12/19 08:30:27;;;;;;;34.90;13.70;;;;;;;3.45;81.55;101699.50;5051676;28;20021;-77
2023/12/19 08:32:54;;;;;;;32.55;12.27;;;;;;;3.47;81.12;101698.69;5051558;28;20035;-77
2023/12/19 08:35:20;;;;;;;30.35;11.50;;;;;;;3.48;81.32;101696.16;5051690;28;20025;-77
2023/12/19 08:37:45;;;;;;;32.23;11.93;;;;;;;3.51;80.83;101703.25;5051461;28;20111;-77
2023/12/19 08:40:11;;;;;;;28.05;11.50;;;;;;;3.54;81.00;101703.41;5051349;28;20049;-77
2023/12/19 08:42:36;;;;;;;39.00;13.63;;;;;;;3.56;81.27;101707.84;5051267;28;20481;-76
2023/12/19 08:45:02;;;;;;;32.60;12.17;;;;;;;3.58;80.93;101713.13;5051186;28;20029;-77
2023/12/19 08:47:28;;;;;;;32.80;11.57;;;;;;;3.62;80.80;101707.25;5051318;28;20036;-77
2023/12/19 08:49:53;;;;;;;30.67;13.50;;;;;;;3.66;80.72;101716.13;5050805;28;20041;-77
2023/12/19 08:52:21;;;;;;;30.43;12.37;;;;;;;3.68;80.68;101709.25;5051283;28;20295;-78
2023/12/19 08:54:46;;;;;;;35.80;13.57;;;;;;;3.69;80.59;101709.31;5050942;28;20075;-77
2023/12/19 08:57:13;;;;;;;36.83;14.13;;;;;;;3.70;80.90;101715.44;5051068;28;20033;-77
2023/12/19 08:59:39;;;;;;;37.30;14.95;;;;;;;3.72;80.48;101719.00;5050889;28;20048;-77
2023/12/19 09:02:04;;;;;;;34.30;13.90;;;;;;;3.73;80.28;101711.25;5050882;28;20060;-78
2023/12/19 09:04:30;;;;;;;32.30;13.50;;;;;;;3.75;80.41;101707.84;5050703;28;20112;-77
2023/12/19 09:06:56;;;;;;;33.93;14.13;;;;;;;3.77;80.40;101706.19;5050926;28;20271;-77
2023/12/19 09:09:21;;;;;;;33.22;12.88;;;;;;;3.79;80.11;101705.44;5051138;28;20488;-77
2023/12/19 09:11:47;;;;;;;33.73;14.30;;;;;;;3.80;80.59;101702.00;5050705;28;20024;-77
2023/12/19 09:14:13;;;;;;;33.97;13.63;;;;;;;3.81;80.71;101697.69;5050825;28;20116;-77
2023/12/19 09:16:38;;;;;;;31.80;13.45;;;;;;;3.83;80.51;101691.72;5050691;28;20033;-77
2023/12/19 09:19:04;;;;;;;38.20;14.70;;;;;;;3.85;80.05;101695.28;5050615;28;20025;-78
2023/12/19 09:21:31;;;;;;;32.70;13.67;;;;;;;3.89;80.19;101696.34;5050660;28;20036;-78
2023/12/19 09:23:56;;;;;;;36.15;14.48;;;;;;;3.93;80.25;101684.34;5049445;28;20369;-77
2023/12/19 09:26:22;;;;;;;43.50;16.48;;;;;;;3.97;80.10;101681.94;5049952;28;20048;-77
2023/12/19 09:28:47;;;;;;;42.67;15.77;;;;;;;3.99;80.01;101679.41;5050648;28;20481;-77
2023/12/19 09:31:12;;;;;;;38.83;16.67;;;;;;;3.99;80.79;101677.72;5050584;28;20563;-77
2023/12/19 09:33:39;;;;;;;37.23;15.43;;;;;;;4.01;80.67;101686.50;5050384;28;20029;-77
2023/12/19 09:36:07;;;;;;;34.20;15.68;;;;;;;4.05;80.12;101676.19;5050402;28;20029;-77
2023/12/19 09:38:32;;;;;;;42.03;17.58;;;;;;;4.06;80.34;101684.06;5050362;28;20025;-77
2023/12/19 09:40:58;;;;;;;40.37;16.60;;;;;;;4.08;80.68;101689.38;5050297;28;20025;-77
2023/12/19 09:43:23;;;;;;;40.10;17.10;;;;;;;4.10;80.46;101690.34;5049932;28;20028;-77
2023/12/19 09:45:50;;;;;;;42.65;17.95;;;;;;;4.11;80.21;101687.81;5050072;28;20116;-77
2023/12/19 09:48:18;;;;;;;38.97;16.57;;;;;;;4.14;80.27;101692.25;5050216;28;20198;-77
2023/12/19 09:50:46;;;;;;;38.75;15.73;;;;;;;4.16;80.46;101688.00;5049736;28;20032;-76
2023/12/19 09:53:14;;;;;;;35.47;16.90;;;;;;;4.19;80.28;101692.47;5050104;28;20037;-77
2023/12/19 09:55:43;;;;;;;37.65;14.65;;;;;;;4.22;79.72;101696.13;5049961;28;20021;-77
2023/12/19 09:58:10;;;;;;;37.70;16.20;;;;;;;4.26;80.08;101691.91;5050005;28;20036;-77
2023/12/19 10:00:41;;;;;;;36.97;16.40;;;;;;;4.28;80.02;101679.84;5049362;28;20025;-77
2023/12/19 10:03:06;;;;;;;38.15;16.95;;;;;;;4.30;80.09;101679.09;5049847;28;20354;-76
2023/12/19 10:05:32;;;;;;;40.97;18.07;;;;;;;4.33;80.19;101672.22;5049633;28;20039;-78
2023/12/19 10:07:57;;;;;;;45.60;19.60;;;;;;;4.36;79.92;101675.88;5049604;28;20346;-77
2023/12/19 10:10:43;;;;;;;42.40;18.87;;;;;;;4.38;80.00;101670.69;5049891;28;20036;-77
2023/12/19 10:13:09;;;;;;;49.10;19.35;;;;;;;4.37;80.40;101664.63;5049685;28;20033;-77
2023/12/19 10:15:34;;;;;;;41.42;17.90;;;;;;;4.40;80.07;101661.22;5049711;28;20103;-78
2023/12/19 10:18:04;;;;;;;49.30;22.23;;;;;;;4.43;81.67;101653.53;5049582;28;20108;-78
2023/12/19 10:20:30;;;;;;;50.20;20.73;;;;;;;4.46;80.46;101648.44;5049549;28;20151;-78
2023/12/19 10:23:03;;;;;;;47.10;18.87;;;;;;;4.49;81.14;101646.00;5049622;28;20103;-78
2023/12/19 10:25:29;;;;;;;46.42;18.30;;;;;;;4.51;80.86;101646.03;5048122;28;20040;-77
2023/12/19 10:28:07;;;;;;;37.17;16.50;;;;;;;4.54;80.30;101635.75;5049599;28;20033;-77
2023/12/19 10:30:37;;;;;;;45.95;19.92;;;;;;;4.58;81.15;101632.44;5049454;28;20132;-78
2023/12/19 10:33:04;;;;;;;42.10;19.55;;;;;;;4.61;80.81;101629.97;5049858;28;20090;-77
2023/12/19 10:35:39;;;;;;;38.87;16.90;;;;;;;4.66;80.90;101630.16;5059850;28;20723;-77
2023/12/19 10:38:07;;;;;;;44.25;17.83;;;;;;;4.67;80.63;101632.84;5069404;28;20496;-77
2023/12/19 10:40:33;;;;;;;46.60;19.60;;;;;;;4.71;80.11;101628.66;5069388;28;20025;-77
2023/12/19 10:42:58;;;;;;;41.53;16.33;;;;;;;4.72;80.29;101625.22;5069502;28;20525;-76
2023/12/19 10:45:27;;;;;;;39.30;15.37;;;;;;;4.78;81.07;101622.84;5069257;28;20036;-77
2023/12/19 10:47:53;;;;;;;37.47;16.53;;;;;;;4.83;80.16;101623.06;5055016;28;20726;-77
2023/12/19 10:50:18;;;;;;;34.38;16.83;;;;;;;4.86;80.85;101615.34;5049546;28;20044;-76
2023/12/19 10:52:44;;;;;;;37.87;17.73;;;;;;;4.87;80.51;101610.16;5049419;28;20459;-77
2023/12/19 10:55:17;;;;;;;36.17;16.65;;;;;;;4.91;80.44;101615.50;5049643;28;20044;-78
2023/12/19 10:57:47;;;;;;;31.70;15.73;;;;;;;4.94;79.92;101611.31;5049414;28;20037;-77
2023/12/19 11:00:17;;;;;;;32.23;15.13;;;;;;;4.99;79.91;101607.16;5049098;28;20021;-76
2023/12/19 11:03:16;;;;;;;36.13;15.32;;;;;;;5.03;79.91;101600.38;5049093;28;20104;-78
2023/12/19 11:05:45;;;;;;;32.40;13.77;;;;;;;5.05;80.06;101596.09;5049327;28;20079;-77
2023/12/19 11:08:16;;;;;;;34.28;14.68;;;;;;;5.08;79.90;101588.38;5049176;28;20029;-77
2023/12/19 11:10:48;;;;;;;33.92;15.07;;;;;;;5.11;80.35;101577.19;5049162;28;20033;-77
2023/12/19 11:13:15;;;;;;;29.90;13.80;;;;;;;5.12;80.05;101574.59;5051413;28;20031;-76